createdAt,value
2023-04-07T00:00:58.779Z,88.85
2023-04-07T00:02:01.085Z,89.33
2023-04-07T00:03:07.447Z,88.88
2023-04-07T00:04:12.411Z,89.31
2023-04-07T00:05:14.737Z,89.28
2023-04-07T00:06:18.031Z,88.97
2023-04-07T00:07:20.227Z,89.01
2023-04-07T00:08:23.559Z,89.28
2023-04-07T00:09:26.003Z,89.38
2023-04-07T00:10:29.319Z,89.06
2023-04-07T00:11:31.676Z,89.42
2023-04-07T00:12:35.079Z,88.96
2023-04-07T00:13:37.222Z,89.11
2023-04-07T00:14:40.506Z,88.97
2023-04-07T00:15:42.778Z,89.34
2023-04-07T00:16:45.976Z,89.12
2023-04-07T00:17:48.275Z,89.06
2023-04-07T00:18:51.468Z,89.50
2023-04-07T00:19:54.980Z,89.16
2023-04-07T00:21:04.486Z,89.35
2023-04-07T00:22:06.989Z,89.14
2023-04-07T00:23:10.158Z,89.23
2023-04-07T00:24:13.013Z,89.43
2023-04-07T00:25:19.497Z,89.35
2023-04-07T00:26:21.790Z,89.12
2023-04-07T00:27:25.563Z,89.26
2023-04-07T00:28:27.742Z,89.51
2023-04-07T00:29:31.134Z,89.08
2023-04-07T00:30:33.366Z,89.73
2023-04-07T00:31:36.481Z,89.41
2023-04-07T00:32:38.745Z,89.37
2023-04-07T00:33:41.826Z,89.53
2023-04-07T00:34:43.870Z,89.46
2023-04-07T00:35:48.630Z,89.62
2023-04-07T00:36:52.295Z,89.68
2023-04-07T00:37:55.886Z,89.32
2023-04-07T00:38:57.963Z,89.65
2023-04-07T00:40:01.030Z,89.53
2023-04-07T00:41:03.161Z,89.52
2023-04-07T00:42:06.734Z,89.51
2023-04-07T00:43:08.866Z,89.51
2023-04-07T00:44:12.384Z,89.41
2023-04-07T00:45:14.305Z,89.38
2023-04-07T00:46:17.441Z,89.66
2023-04-07T00:47:20.418Z,89.79
2023-04-07T00:48:23.615Z,89.52
2023-04-07T00:49:25.994Z,89.56
2023-04-07T00:50:32.537Z,89.39
2023-04-07T00:51:36.774Z,89.75
2023-04-07T00:52:41.086Z,89.52
2023-04-07T00:53:43.282Z,89.76
2023-04-07T00:54:47.444Z,89.66
2023-04-07T00:55:49.752Z,89.39
2023-04-07T00:56:55.905Z,90.03
2023-04-07T00:57:58.478Z,89.79
2023-04-07T00:59:40.527Z,89.90
2023-04-07T01:00:46.338Z,89.75
2023-04-07T01:01:56.437Z,89.56
2023-04-07T01:03:02.040Z,90.04
2023-04-07T01:04:08.859Z,89.66
2023-04-07T01:05:15.870Z,90.03
2023-04-07T01:06:27.275Z,89.93
2023-04-07T01:07:37.909Z,90.07
2023-04-07T01:08:50.553Z,89.95
2023-04-07T01:09:56.566Z,89.78
2023-04-07T01:11:33.606Z,90.20
2023-04-07T01:12:46.215Z,90.06
2023-04-07T01:13:51.018Z,89.74
2023-04-07T01:15:14.285Z,90.16
2023-04-07T01:16:32.791Z,89.89
2023-04-07T01:17:36.509Z,90.19
2023-04-07T01:18:40.414Z,90.20
2023-04-07T01:19:48.049Z,90.07
2023-04-07T01:21:02.093Z,90.27
2023-04-07T01:22:09.973Z,89.85
2023-04-07T01:23:27.034Z,90.09
2023-04-07T01:24:46.852Z,90.31
2023-04-07T01:26:04.213Z,90.06
2023-04-07T01:27:20.265Z,90.13
2023-04-07T01:28:41.827Z,89.87
2023-04-07T01:29:48.255Z,90.34
2023-04-07T01:30:54.965Z,90.20
2023-04-07T01:31:59.018Z,89.90
2023-04-07T01:33:03.313Z,90.27
2023-04-07T01:34:06.723Z,90.06
2023-04-07T01:35:12.317Z,90.35
2023-04-07T01:36:25.613Z,90.06
2023-04-07T01:37:30.244Z,90.41
2023-04-07T01:38:33.834Z,90.27
2023-04-07T01:39:40.568Z,90.51
2023-04-07T01:40:43.772Z,90.19
2023-04-07T01:41:47.310Z,90.54
2023-04-07T01:42:50.559Z,90.53
2023-04-07T01:43:54.492Z,90.36
2023-04-07T01:44:58.572Z,90.38
2023-04-07T01:46:02.853Z,90.78
2023-04-07T01:47:05.857Z,90.26
2023-04-07T01:48:09.739Z,90.24
2023-04-07T01:49:12.875Z,90.61
2023-04-07T01:50:22.029Z,90.20
2023-04-07T01:51:29.112Z,90.40
2023-04-07T01:52:32.922Z,90.48
2023-04-07T01:53:37.855Z,90.66
2023-04-07T01:54:41.234Z,90.36
2023-04-07T01:55:43.501Z,90.36
2023-04-07T01:56:47.569Z,90.62
2023-04-07T01:57:49.746Z,90.71
2023-04-07T01:58:55.521Z,90.30
2023-04-07T02:00:00.660Z,90.46
2023-04-07T02:01:06.220Z,90.79
2023-04-07T02:02:08.760Z,90.33
2023-04-07T02:03:21.103Z,90.49
2023-04-07T02:04:29.936Z,90.37
2023-04-07T02:05:34.058Z,90.48
2023-04-07T02:06:41.457Z,90.83
2023-04-07T02:07:49.921Z,90.71
2023-04-07T02:08:56.317Z,90.95
2023-04-07T02:10:01.797Z,90.60
2023-04-07T02:11:04.107Z,90.88
2023-04-07T02:12:13.459Z,90.82
2023-04-07T02:13:22.474Z,90.98
2023-04-07T02:14:27.013Z,90.80
2023-04-07T02:15:41.034Z,91.01
2023-04-07T02:16:45.685Z,90.97
2023-04-07T02:17:51.260Z,90.66
2023-04-07T02:19:00.766Z,90.92
2023-04-07T02:20:04.739Z,90.72
2023-04-07T02:21:08.814Z,90.86
2023-04-07T02:22:13.057Z,91.01
2023-04-07T02:23:16.448Z,90.62
2023-04-07T02:24:21.123Z,90.71
2023-04-07T02:25:25.084Z,90.98
2023-04-07T02:26:30.536Z,90.83
2023-04-07T02:27:32.559Z,91.16
2023-04-07T02:28:35.577Z,91.04
2023-04-07T02:29:37.549Z,90.76
2023-04-07T02:30:41.926Z,90.70
2023-04-07T02:31:44.026Z,91.01
2023-04-07T02:32:47.069Z,90.81
2023-04-07T02:33:49.680Z,90.76
2023-04-07T02:34:52.696Z,90.94
2023-04-07T02:35:54.636Z,91.25
2023-04-07T02:36:57.666Z,91.12
2023-04-07T02:38:00.468Z,91.01
2023-04-07T02:39:03.825Z,91.24
2023-04-07T02:40:07.182Z,91.14
2023-04-07T02:41:10.693Z,91.41
2023-04-07T02:42:12.863Z,91.55
2023-04-07T02:43:17.634Z,91.30
2023-04-07T02:44:20.110Z,91.27
2023-04-07T02:45:23.264Z,91.09
2023-04-07T02:46:26.934Z,91.12
2023-04-07T02:47:30.352Z,91.21
2023-04-07T02:48:38.548Z,91.20
2023-04-07T02:49:41.750Z,91.11
2023-04-07T02:50:44.077Z,91.14
2023-04-07T02:51:48.004Z,91.43
2023-04-07T02:52:50.088Z,91.58
2023-04-07T02:53:53.441Z,91.28
2023-04-07T02:54:55.984Z,91.25
2023-04-07T02:56:02.668Z,91.32
2023-04-07T02:57:04.797Z,91.58
2023-04-07T02:58:07.689Z,91.37
2023-04-07T02:59:14.266Z,91.40
2023-04-07T03:00:20.520Z,91.40
2023-04-07T03:01:36.329Z,91.67
2023-04-07T03:02:39.610Z,91.73
2023-04-07T03:03:42.443Z,91.48
2023-04-07T03:04:54.963Z,91.65
2023-04-07T03:06:01.498Z,91.47
2023-04-07T03:07:05.776Z,91.81
2023-04-07T03:08:08.916Z,91.88
2023-04-07T03:09:13.494Z,91.90
2023-04-07T03:10:15.868Z,91.88
2023-04-07T03:11:18.892Z,91.87
2023-04-07T03:12:21.193Z,91.82
2023-04-07T03:13:24.429Z,91.50
2023-04-07T03:14:26.488Z,91.74
2023-04-07T03:15:29.339Z,91.52
2023-04-07T03:16:31.816Z,91.34
2023-04-07T03:17:41.581Z,91.63
2023-04-07T03:18:49.393Z,91.47
2023-04-07T03:19:53.137Z,91.27
2023-04-07T03:20:56.204Z,91.40
2023-04-07T03:21:59.635Z,91.61
2023-04-07T03:23:03.118Z,91.87
2023-04-07T03:24:08.438Z,91.44
2023-04-07T03:25:11.202Z,91.75
2023-04-07T03:26:14.964Z,91.55
2023-04-07T03:27:18.604Z,91.52
2023-04-07T03:28:23.306Z,91.48
2023-04-07T03:29:25.724Z,91.58
2023-04-07T03:30:29.269Z,91.74
2023-04-07T03:31:31.493Z,91.76
2023-04-07T03:32:35.054Z,91.40
2023-04-07T03:33:38.625Z,91.45
2023-04-07T03:34:41.572Z,91.53
2023-04-07T03:35:43.816Z,91.86
2023-04-07T03:36:47.781Z,91.86
2023-04-07T03:37:51.187Z,91.67
2023-04-07T03:38:55.369Z,91.97
2023-04-07T03:39:57.475Z,91.68
2023-04-07T03:41:03.457Z,92.07
2023-04-07T03:42:06.188Z,91.78
2023-04-07T03:43:14.349Z,92.05
2023-04-07T03:44:19.812Z,91.63
2023-04-07T03:45:23.134Z,91.94
2023-04-07T03:46:28.586Z,91.74
2023-04-07T03:47:32.080Z,91.70
2023-04-07T03:48:38.672Z,91.99
2023-04-07T03:49:46.805Z,92.32
2023-04-07T03:50:49.005Z,91.83
2023-04-07T03:51:57.618Z,91.96
2023-04-07T03:52:59.976Z,91.98
2023-04-07T03:54:06.854Z,92.07
2023-04-07T03:55:15.602Z,92.04
2023-04-07T03:56:18.136Z,92.15
2023-04-07T03:57:24.973Z,92.26
2023-04-07T03:58:30.451Z,92.20
2023-04-07T03:59:44.390Z,92.02
2023-04-07T04:00:46.560Z,92.15
2023-04-07T04:01:50.020Z,92.10
2023-04-07T04:02:52.558Z,92.05
2023-04-07T04:03:58.392Z,92.09
2023-04-07T04:05:06.541Z,91.92
2023-04-07T04:06:09.689Z,92.44
2023-04-07T04:07:11.850Z,92.50
2023-04-07T04:08:25.321Z,92.42
2023-04-07T04:09:28.099Z,92.35
2023-04-07T04:10:31.417Z,92.32
2023-04-07T04:11:54.349Z,92.34
2023-04-07T04:13:00.702Z,92.51
2023-04-07T04:14:02.840Z,92.32
2023-04-07T04:15:06.589Z,92.67
2023-04-07T04:16:09.690Z,92.81
2023-04-07T04:17:14.452Z,92.63
2023-04-07T04:18:21.044Z,92.66
2023-04-07T04:19:28.354Z,92.45
2023-04-07T04:20:32.583Z,92.41
2023-04-07T04:21:37.182Z,92.96
2023-04-07T04:22:39.190Z,92.24
2023-04-07T04:23:43.020Z,92.64
2023-04-07T04:24:45.281Z,92.60
2023-04-07T04:25:48.497Z,92.42
2023-04-07T04:26:50.569Z,92.57
2023-04-07T04:27:53.780Z,92.42
2023-04-07T04:28:58.346Z,92.45
2023-04-07T04:30:05.164Z,92.63
2023-04-07T04:31:30.241Z,92.30
2023-04-07T04:32:32.981Z,92.51
2023-04-07T04:33:36.320Z,92.39
2023-04-07T04:34:42.202Z,92.66
2023-04-07T04:35:53.845Z,92.82
2023-04-07T04:36:56.930Z,92.44
2023-04-07T04:38:00.536Z,92.41
2023-04-07T04:39:07.640Z,92.85
2023-04-07T04:40:12.988Z,92.32
2023-04-07T04:41:16.687Z,92.58
2023-04-07T04:42:22.981Z,92.35
2023-04-07T04:43:26.593Z,92.51
2023-04-07T04:44:52.588Z,92.71
2023-04-07T04:45:57.086Z,92.81
2023-04-07T04:47:03.101Z,92.59
2023-04-07T04:48:06.969Z,92.85
2023-04-07T04:49:10.085Z,92.87
2023-04-07T04:50:13.551Z,92.69
2023-04-07T04:51:19.535Z,92.87
2023-04-07T04:52:27.258Z,92.92
2023-04-07T04:53:31.698Z,93.12
2023-04-07T04:54:36.269Z,92.84
2023-04-07T04:55:40.817Z,92.94
2023-04-07T04:56:43.407Z,93.07
2023-04-07T04:57:47.316Z,93.22
2023-04-07T04:58:54.757Z,93.19
2023-04-07T05:00:11.205Z,92.88
2023-04-07T05:01:15.646Z,92.63
2023-04-07T05:02:26.653Z,92.94
2023-04-07T05:03:29.514Z,93.09
2023-04-07T05:04:36.871Z,92.76
2023-04-07T05:06:00.177Z,92.55
2023-04-07T05:07:03.399Z,92.71
2023-04-07T05:08:07.395Z,92.56
2023-04-07T05:09:12.895Z,92.52
2023-04-07T05:10:19.961Z,92.56
2023-04-07T05:11:25.901Z,92.88
2023-04-07T05:12:32.236Z,93.22
2023-04-07T05:13:36.877Z,92.88
2023-04-07T05:14:41.080Z,93.24
2023-04-07T05:15:44.634Z,92.93
2023-04-07T05:16:49.680Z,92.97
2023-04-07T05:17:56.294Z,93.17
2023-04-07T05:19:02.797Z,93.21
2023-04-07T05:20:09.181Z,93.20
2023-04-07T05:21:15.815Z,93.46
2023-04-07T05:22:23.975Z,93.47
2023-04-07T05:23:28.338Z,93.36
2023-04-07T05:24:30.458Z,93.34
2023-04-07T05:25:45.659Z,93.34
2023-04-07T05:26:47.957Z,93.25
2023-04-07T05:27:51.525Z,93.28
2023-04-07T05:28:54.022Z,93.21
2023-04-07T05:30:01.277Z,93.70
2023-04-07T05:31:08.060Z,93.07
2023-04-07T05:32:12.060Z,93.11
2023-04-07T05:33:14.320Z,93.36
2023-04-07T05:34:35.614Z,92.96
2023-04-07T05:35:38.560Z,92.78
2023-04-07T05:36:44.079Z,92.97
2023-04-07T05:37:46.269Z,92.60
2023-04-07T05:38:49.822Z,92.82
2023-04-07T05:39:54.524Z,92.64
2023-04-07T05:40:57.611Z,93.14
2023-04-07T05:42:04.261Z,92.78
2023-04-07T05:43:08.866Z,93.05
2023-04-07T05:44:11.080Z,92.97
2023-04-07T05:45:17.005Z,92.97
2023-04-07T05:46:22.557Z,92.86
2023-04-07T05:47:32.592Z,93.26
2023-04-07T05:48:35.865Z,93.16
2023-04-07T05:49:46.170Z,93.03
2023-04-07T05:50:50.408Z,92.84
2023-04-07T05:51:55.320Z,92.73
2023-04-07T05:52:58.860Z,92.99
2023-04-07T05:54:03.517Z,92.69
2023-04-07T05:55:08.590Z,93.13
2023-04-07T05:56:10.735Z,93.43
2023-04-07T05:57:34.608Z,93.26
2023-04-07T05:58:38.606Z,93.17
2023-04-07T05:59:41.830Z,93.11
2023-04-07T06:00:44.236Z,93.40
2023-04-07T06:01:53.171Z,93.48
2023-04-07T06:02:59.505Z,93.96
2023-04-07T06:04:03.657Z,93.76
2023-04-07T06:05:06.522Z,93.63
2023-04-07T06:06:09.627Z,93.68
2023-04-07T06:07:14.404Z,93.37
2023-04-07T06:08:19.245Z,93.63
2023-04-07T06:09:21.678Z,93.31
2023-04-07T06:10:24.701Z,93.53
2023-04-07T06:11:27.755Z,93.62
2023-04-07T06:12:31.130Z,94.00
2023-04-07T06:13:33.233Z,93.51
2023-04-07T06:14:36.451Z,93.72
2023-04-07T06:15:38.861Z,93.35
2023-04-07T06:16:41.827Z,93.67
2023-04-07T06:17:45.825Z,93.66
2023-04-07T06:18:47.985Z,93.73
2023-04-07T06:19:51.242Z,94.10
2023-04-07T06:20:53.345Z,93.55
2023-04-07T06:21:56.472Z,93.65
2023-04-07T06:22:59.798Z,93.76
2023-04-07T06:24:03.102Z,93.73
2023-04-07T06:25:06.996Z,93.80
2023-04-07T06:26:12.274Z,93.58
2023-04-07T06:27:14.245Z,93.62
2023-04-07T06:28:18.570Z,93.42
2023-04-07T06:29:20.697Z,93.59
2023-04-07T06:30:24.001Z,93.63
2023-04-07T06:31:27.276Z,93.43
2023-04-07T06:32:30.479Z,93.44
2023-04-07T06:33:32.678Z,93.31
2023-04-07T06:34:36.329Z,93.54
2023-04-07T06:35:40.008Z,93.85
2023-04-07T06:36:43.592Z,93.74
2023-04-07T06:37:45.628Z,93.93
2023-04-07T06:38:50.006Z,93.71
2023-04-07T06:39:51.983Z,94.01
2023-04-07T06:40:56.432Z,94.03
2023-04-07T06:41:58.652Z,94.34
2023-04-07T06:43:02.216Z,94.30
2023-04-07T06:44:14.762Z,94.05
2023-04-07T06:45:18.220Z,93.88
2023-04-07T06:46:20.557Z,94.00
2023-04-07T06:47:24.205Z,93.82
2023-04-07T06:48:26.454Z,93.59
2023-04-07T06:49:29.337Z,93.49
2023-04-07T06:50:33.567Z,93.31
2023-04-07T06:51:36.922Z,93.16
2023-04-07T06:52:39.241Z,93.65
2023-04-07T06:53:44.687Z,93.06
2023-04-07T06:54:48.964Z,93.33
2023-04-07T06:55:50.982Z,93.32
2023-04-07T06:56:54.644Z,93.54
2023-04-07T06:58:00.004Z,93.51
2023-04-07T06:59:03.420Z,93.65
2023-04-07T07:00:08.060Z,94.01
2023-04-07T07:01:11.349Z,94.06
2023-04-07T07:02:13.589Z,94.05
2023-04-07T07:03:17.395Z,94.15
2023-04-07T07:04:22.293Z,94.18
2023-04-07T07:05:26.003Z,94.06
2023-04-07T07:06:32.937Z,94.42
2023-04-07T07:07:37.313Z,94.53
2023-04-07T07:08:44.036Z,94.36
2023-04-07T07:09:46.622Z,94.17
2023-04-07T07:10:51.932Z,94.72
2023-04-07T07:11:54.358Z,94.39
2023-04-07T07:12:58.110Z,94.48
2023-04-07T07:14:01.231Z,94.07
2023-04-07T07:15:05.055Z,94.42
2023-04-07T07:16:09.943Z,94.10
2023-04-07T07:17:12.081Z,94.55
2023-04-07T07:18:15.458Z,94.28
2023-04-07T07:19:18.692Z,94.57
2023-04-07T07:20:23.674Z,93.89
2023-04-07T07:21:26.847Z,93.76
2023-04-07T07:22:30.437Z,93.98
2023-04-07T07:23:34.044Z,93.68
2023-04-07T07:24:37.250Z,93.68
2023-04-07T07:25:40.922Z,93.74
2023-04-07T07:26:46.061Z,94.02
2023-04-07T07:28:07.360Z,93.86
2023-04-07T07:29:09.328Z,93.90
2023-04-07T07:30:12.981Z,94.05
2023-04-07T07:31:17.881Z,93.92
2023-04-07T07:32:21.458Z,93.63
2023-04-07T07:33:23.858Z,93.73
2023-04-07T07:34:27.108Z,93.60
2023-04-07T07:35:29.820Z,93.76
2023-04-07T07:36:35.804Z,93.64
2023-04-07T07:37:37.942Z,93.85
2023-04-07T07:38:41.811Z,93.64
2023-04-07T07:39:44.019Z,93.51
2023-04-07T07:40:47.614Z,93.61
2023-04-07T07:41:51.433Z,93.61
2023-04-07T07:42:55.071Z,94.15
2023-04-07T07:43:58.221Z,93.99
2023-04-07T07:45:07.838Z,94.00
2023-04-07T07:46:09.834Z,94.47
2023-04-07T07:47:13.702Z,94.81
2023-04-07T07:48:17.533Z,95.19
2023-04-07T07:49:19.652Z,95.00
2023-04-07T07:50:22.981Z,95.44
2023-04-07T07:51:25.335Z,95.55
2023-04-07T07:52:30.605Z,95.12
2023-04-07T07:53:33.722Z,94.93
2023-04-07T07:54:36.880Z,94.77
2023-04-07T07:55:39.188Z,95.16
2023-04-07T07:56:42.200Z,94.96
2023-04-07T07:57:47.733Z,94.14
2023-04-07T07:58:50.917Z,94.03
2023-04-07T07:59:54.289Z,93.89
2023-04-07T08:00:57.290Z,94.09
2023-04-07T08:01:59.456Z,93.97
2023-04-07T08:03:02.987Z,93.81
2023-04-07T08:04:06.832Z,93.30
2023-04-07T08:05:10.562Z,93.36
2023-04-07T08:06:13.560Z,93.28
2023-04-07T08:07:17.102Z,93.46
2023-04-07T08:08:20.183Z,93.49
2023-04-07T08:09:23.311Z,93.66
2023-04-07T08:10:25.702Z,94.18
2023-04-07T08:11:28.823Z,93.75
2023-04-07T08:12:31.082Z,93.54
2023-04-07T08:13:35.696Z,93.44
2023-04-07T08:14:37.781Z,93.27
2023-04-07T08:15:41.197Z,93.43
2023-04-07T08:16:43.618Z,93.73
2023-04-07T08:17:47.032Z,93.61
2023-04-07T08:18:49.876Z,93.39
2023-04-07T08:19:53.566Z,93.01
2023-04-07T08:20:57.912Z,93.43
2023-04-07T08:22:01.124Z,93.27
2023-04-07T08:23:05.380Z,93.55
2023-04-07T08:24:10.781Z,93.21
2023-04-07T08:25:13.999Z,93.20
2023-04-07T08:26:19.280Z,92.92
2023-04-07T08:27:34.653Z,92.73
2023-04-07T08:28:39.496Z,92.80
2023-04-07T08:29:43.786Z,92.85
2023-04-07T08:30:47.097Z,93.39
2023-04-07T08:31:49.328Z,93.13
2023-04-07T08:32:52.973Z,93.01
2023-04-07T08:33:58.831Z,92.41
2023-04-07T08:35:01.965Z,92.42
2023-04-07T08:36:04.784Z,92.76
2023-04-07T08:37:09.567Z,92.58
2023-04-07T08:38:11.704Z,93.18
2023-04-07T08:39:18.023Z,93.42
2023-04-07T08:40:20.267Z,93.42
2023-04-07T08:41:28.000Z,93.37
2023-04-07T08:42:35.250Z,93.22
2023-04-07T08:43:40.213Z,92.91
2023-04-07T08:44:42.768Z,92.83
2023-04-07T08:45:46.904Z,92.86
2023-04-07T08:46:49.403Z,92.55
2023-04-07T08:47:57.052Z,92.86
2023-04-07T08:49:02.351Z,92.45
2023-04-07T08:50:07.197Z,92.49
2023-04-07T08:51:10.833Z,92.82
2023-04-07T08:52:16.065Z,93.37
2023-04-07T08:53:25.665Z,93.12
2023-04-07T08:54:28.782Z,93.17
2023-04-07T08:55:32.037Z,92.83
2023-04-07T08:56:34.891Z,92.70
2023-04-07T08:57:38.614Z,93.06
2023-04-07T08:58:43.392Z,92.48
2023-04-07T08:59:48.996Z,92.70
2023-04-07T09:00:52.995Z,92.90
2023-04-07T09:01:57.844Z,92.87
2023-04-07T09:03:03.717Z,92.88
2023-04-07T09:04:07.273Z,92.68
2023-04-07T09:05:14.684Z,92.51
2023-04-07T09:06:21.224Z,92.69
2023-04-07T09:07:23.828Z,92.40
2023-04-07T09:08:29.955Z,92.27
2023-04-07T09:09:34.352Z,92.38
2023-04-07T09:10:37.619Z,92.88
2023-04-07T09:11:43.694Z,93.05
2023-04-07T09:12:45.833Z,92.64
2023-04-07T09:13:50.639Z,92.43
2023-04-07T09:14:54.165Z,92.00
2023-04-07T09:15:57.157Z,92.04
2023-04-07T09:17:00.961Z,92.15
2023-04-07T09:18:09.710Z,92.01
2023-04-07T09:19:11.747Z,91.67
2023-04-07T09:20:14.728Z,91.67
2023-04-07T09:21:16.989Z,91.93
2023-04-07T09:22:35.744Z,92.29
2023-04-07T09:23:43.007Z,92.48
2023-04-07T09:24:47.420Z,92.84
2023-04-07T09:25:50.248Z,92.69
2023-04-07T09:26:52.452Z,92.90
2023-04-07T09:27:57.811Z,92.73
2023-04-07T09:29:04.350Z,92.71
2023-04-07T09:30:14.853Z,92.23
2023-04-07T09:31:17.411Z,92.28
2023-04-07T09:32:36.934Z,92.75
2023-04-07T09:33:39.349Z,92.35
2023-04-07T09:34:43.605Z,92.73
2023-04-07T09:35:53.273Z,93.02
2023-04-07T09:36:56.944Z,93.00
2023-04-07T09:38:06.171Z,92.45
2023-04-07T09:39:09.892Z,92.54
2023-04-07T09:40:13.220Z,92.45
2023-04-07T09:41:18.344Z,92.21
2023-04-07T09:42:20.678Z,92.31
2023-04-07T09:43:24.023Z,92.31
2023-04-07T09:44:29.068Z,91.67
2023-04-07T09:45:35.758Z,91.78
2023-04-07T09:46:49.161Z,91.79
2023-04-07T09:48:06.639Z,91.68
2023-04-07T09:49:09.894Z,91.95
2023-04-07T09:50:12.727Z,91.89
2023-04-07T09:51:17.151Z,92.00
2023-04-07T09:52:26.469Z,91.48
2023-04-07T09:53:43.109Z,91.69
2023-04-07T09:54:46.963Z,91.93
2023-04-07T09:55:57.093Z,91.96
2023-04-07T09:56:59.689Z,92.04
2023-04-07T09:58:12.186Z,91.83
2023-04-07T09:59:15.534Z,91.95
2023-04-07T10:00:20.295Z,91.86
2023-04-07T10:01:23.749Z,91.41
2023-04-07T10:02:27.646Z,91.69
2023-04-07T10:03:56.562Z,92.16
2023-04-07T10:05:00.890Z,92.17
2023-04-07T10:06:05.021Z,91.98
2023-04-07T10:07:08.463Z,92.17
2023-04-07T10:09:39.968Z,92.16
2023-04-07T10:10:42.969Z,91.94
2023-04-07T10:11:46.604Z,92.08
2023-04-07T10:12:51.487Z,91.96
2023-04-07T10:13:56.584Z,91.81
2023-04-07T10:14:59.227Z,91.57
2023-04-07T10:16:05.321Z,91.05
2023-04-07T10:17:10.046Z,91.14
2023-04-07T10:18:18.468Z,91.03
2023-04-07T10:19:21.326Z,91.26
2023-04-07T10:20:25.412Z,90.94
2023-04-07T10:21:27.827Z,91.42
2023-04-07T10:22:31.337Z,91.67
2023-04-07T10:23:53.223Z,91.40
2023-04-07T10:24:58.862Z,91.69
2023-04-07T10:26:04.372Z,91.95
2023-04-07T10:27:12.609Z,92.16
2023-04-07T10:28:16.454Z,92.41
2023-04-07T10:29:20.715Z,92.77
2023-04-07T10:30:31.288Z,92.92
2023-04-07T10:31:36.989Z,92.74
2023-04-07T10:32:46.875Z,92.94
2023-04-07T10:33:54.106Z,93.02
2023-04-07T10:34:58.182Z,92.98
2023-04-07T10:36:06.160Z,92.55
2023-04-07T10:37:11.755Z,92.71
2023-04-07T10:38:16.594Z,92.86
2023-04-07T10:39:24.180Z,93.07
2023-04-07T10:40:29.549Z,93.16
2023-04-07T10:41:36.883Z,92.93
2023-04-07T10:42:45.596Z,92.87
2023-04-07T10:43:50.951Z,92.76
2023-04-07T10:44:53.125Z,92.92
2023-04-07T10:46:02.845Z,93.13
2023-04-07T10:47:09.337Z,93.14
2023-04-07T10:48:14.110Z,92.92
2023-04-07T10:49:20.892Z,93.18
2023-04-07T10:50:24.256Z,93.01
2023-04-07T10:51:27.496Z,92.79
2023-04-07T10:52:29.843Z,92.85
2023-04-07T10:53:33.981Z,93.33
2023-04-07T10:54:36.339Z,93.62
2023-04-07T10:55:40.801Z,93.59
2023-04-07T10:57:04.989Z,93.60
2023-04-07T10:58:31.838Z,93.28
2023-04-07T10:59:40.005Z,93.45
2023-04-07T11:00:43.484Z,93.64
2023-04-07T11:01:46.593Z,93.55
2023-04-07T11:02:50.635Z,93.69
2023-04-07T11:03:59.649Z,93.92
2023-04-07T11:05:03.063Z,93.57
2023-04-07T11:06:08.295Z,93.60
2023-04-07T11:07:14.861Z,93.77
2023-04-07T11:08:33.724Z,93.47
2023-04-07T11:09:42.302Z,93.63
2023-04-07T11:11:02.406Z,93.67
2023-04-07T11:12:06.346Z,93.62
2023-04-07T11:13:09.231Z,93.43
2023-04-07T11:14:12.312Z,93.29
2023-04-07T11:15:19.053Z,93.25
2023-04-07T11:16:36.809Z,93.49
2023-04-07T11:17:39.986Z,93.68
2023-04-07T11:18:46.025Z,94.07
2023-04-07T11:19:53.727Z,93.98
2023-04-07T11:20:58.635Z,94.04
2023-04-07T11:23:27.487Z,93.79
2023-04-07T11:24:32.910Z,93.76
2023-04-07T11:25:36.681Z,93.84
2023-04-07T11:26:41.692Z,93.47
2023-04-07T11:27:45.386Z,93.02
2023-04-07T11:28:49.295Z,92.86
2023-04-07T11:29:51.968Z,92.97
2023-04-07T11:30:56.562Z,92.98
2023-04-07T11:32:03.349Z,92.83
2023-04-07T11:33:06.759Z,93.06
2023-04-07T11:34:12.822Z,92.97
2023-04-07T11:35:16.291Z,92.71
2023-04-07T11:36:28.511Z,92.24
2023-04-07T11:37:31.709Z,92.07
2023-04-07T11:38:38.805Z,92.46
2023-04-07T11:39:43.614Z,92.35
2023-04-07T11:40:47.171Z,92.65
2023-04-07T11:41:51.359Z,92.72
2023-04-07T11:42:53.737Z,92.99
2023-04-07T11:44:07.297Z,93.10
2023-04-07T11:45:17.082Z,92.73
2023-04-07T11:46:22.667Z,92.48
2023-04-07T11:47:34.534Z,92.09
2023-04-07T11:48:39.470Z,92.32
2023-04-07T11:49:49.271Z,92.35
2023-04-07T11:50:51.802Z,92.05
2023-04-07T11:52:03.644Z,91.75
2023-04-07T11:53:06.076Z,91.60
2023-04-07T11:54:10.130Z,91.41
2023-04-07T11:55:23.182Z,91.68
2023-04-07T11:56:28.246Z,91.64
2023-04-07T11:57:31.612Z,91.72
2023-04-07T11:58:35.166Z,91.75
2023-04-07T11:59:37.892Z,91.63
2023-04-07T12:01:02.157Z,91.93
2023-04-07T12:02:09.884Z,91.70
2023-04-07T12:03:14.720Z,92.22
2023-04-07T12:04:18.875Z,92.59
2023-04-07T12:05:33.503Z,92.43
2023-04-07T12:06:38.993Z,92.49
2023-04-07T12:07:53.259Z,92.32
2023-04-07T12:08:56.884Z,92.35
2023-04-07T12:09:59.225Z,92.41
2023-04-07T12:11:05.158Z,92.31
2023-04-07T12:12:11.967Z,92.36
2023-04-07T12:13:14.634Z,92.51
2023-04-07T12:14:17.832Z,92.51
2023-04-07T12:15:20.674Z,92.61
2023-04-07T12:16:24.311Z,92.53
2023-04-07T12:18:03.169Z,92.22
2023-04-07T12:19:07.788Z,91.87
2023-04-07T12:20:11.938Z,92.07
2023-04-07T12:21:15.960Z,92.17
2023-04-07T12:22:21.033Z,92.07
2023-04-07T12:23:27.786Z,91.87
2023-04-07T12:24:32.342Z,91.67
2023-04-07T12:25:36.534Z,91.98
2023-04-07T12:26:39.054Z,91.98
2023-04-07T12:27:43.787Z,91.93
2023-04-07T12:29:07.238Z,92.25
2023-04-07T12:30:10.077Z,92.42
2023-04-07T12:31:13.895Z,92.73
2023-04-07T12:32:39.386Z,92.68
2023-04-07T12:33:42.910Z,92.89
2023-04-07T12:34:45.496Z,92.81
2023-04-07T12:35:49.424Z,92.72
2023-04-07T12:36:54.261Z,92.67
2023-04-07T12:37:56.990Z,93.03
2023-04-07T12:39:00.895Z,93.10
2023-04-07T12:40:03.107Z,92.96
2023-04-07T12:41:06.519Z,92.50
2023-04-07T12:42:12.033Z,92.04
2023-04-07T12:43:15.753Z,92.01
2023-04-07T12:44:18.013Z,91.97
2023-04-07T12:45:21.440Z,92.05
2023-04-07T12:46:24.960Z,92.10
2023-04-07T12:47:27.499Z,92.16
2023-04-07T12:48:36.032Z,92.20
2023-04-07T12:49:39.502Z,92.04
2023-04-07T12:50:43.141Z,91.95
2023-04-07T12:51:48.999Z,91.80
2023-04-07T12:52:53.658Z,91.91
2023-04-07T12:53:56.800Z,91.74
2023-04-07T12:55:02.051Z,91.88
2023-04-07T12:56:05.577Z,92.15
2023-04-07T12:57:07.962Z,92.44
2023-04-07T12:58:11.380Z,92.40
2023-04-07T12:59:14.725Z,92.25
2023-04-07T13:00:17.561Z,92.01
2023-04-07T13:01:21.628Z,91.61
2023-04-07T13:02:24.805Z,91.68
2023-04-07T13:03:28.923Z,91.88
2023-04-07T13:04:32.699Z,91.87
2023-04-07T13:05:35.714Z,92.00
2023-04-07T13:06:54.378Z,92.24
2023-04-07T13:08:01.392Z,92.00
2023-04-07T13:09:03.864Z,92.24
2023-04-07T13:10:09.348Z,92.37
2023-04-07T13:11:12.872Z,92.44
2023-04-07T13:12:15.664Z,92.25
2023-04-07T13:13:19.185Z,92.38
2023-04-07T13:14:23.301Z,92.14
2023-04-07T13:15:55.025Z,92.37
2023-04-07T13:16:57.464Z,92.57
2023-04-07T13:19:43.504Z,91.94
2023-04-07T13:20:55.188Z,92.09
2023-04-07T13:22:08.382Z,91.88
2023-04-07T13:23:19.029Z,92.17
2023-04-07T13:24:22.009Z,92.15
2023-04-07T13:25:25.483Z,92.02
2023-04-07T13:26:28.313Z,92.36
2023-04-07T13:27:35.729Z,92.28
2023-04-07T13:28:41.177Z,92.12
2023-04-07T13:29:44.372Z,91.95
2023-04-07T13:30:48.812Z,92.11
2023-04-07T13:31:52.299Z,92.23
2023-04-07T13:32:55.826Z,92.32
2023-04-07T13:34:01.113Z,92.13
2023-04-07T13:35:04.482Z,92.23
2023-04-07T13:36:06.852Z,92.43
2023-04-07T13:37:23.171Z,92.48
2023-04-07T13:38:27.369Z,92.50
2023-04-07T13:39:34.006Z,92.75
2023-04-07T13:40:37.433Z,92.63
2023-04-07T13:41:39.879Z,93.00
2023-04-07T13:42:44.789Z,93.12
2023-04-07T13:43:49.127Z,92.87
2023-04-07T13:44:55.253Z,92.56
2023-04-07T13:45:57.888Z,92.44
2023-04-07T13:47:01.715Z,92.74
2023-04-07T13:48:04.433Z,92.57
2023-04-07T13:49:11.894Z,92.03
2023-04-07T13:50:14.571Z,91.92
2023-04-07T13:51:18.176Z,92.02
2023-04-07T13:52:21.822Z,92.06
2023-04-07T13:53:45.320Z,91.67
2023-04-07T13:54:50.081Z,91.63
2023-04-07T13:56:03.981Z,91.59
2023-04-07T13:57:08.437Z,91.83
2023-04-07T13:58:10.684Z,92.01
2023-04-07T13:59:14.105Z,91.98
2023-04-07T14:00:18.632Z,92.01
2023-04-07T14:01:21.492Z,91.58
2023-04-07T14:02:26.139Z,91.71
2023-04-07T14:03:28.923Z,91.63
2023-04-07T14:04:32.550Z,91.88
2023-04-07T14:05:35.775Z,92.07
2023-04-07T14:06:39.557Z,92.22
2023-04-07T14:07:41.675Z,92.19